sensor_id;sensor_type;location;lat;lon;timestamp;P1;durP1;ratioP1;P2;durP2;ratioP2
71821;SDS011;64096;52.548;13.406;2023-04-25T06:03:39;6.97;;;3.22;;
71821;SDS011;64096;52.548;13.406;2023-04-25T06:06:07;6.85;;;3.30;;
71821;SDS011;64096;52.548;13.406;2023-04-25T06:08:34;9.80;;;4.45;;
71821;SDS011;64096;52.548;13.406;2023-04-25T06:11:00;8.65;;;4.80;;
71821;SDS011;64096;52.548;13.406;2023-04-25T06:13:26;9.60;;;5.10;;
71821;SDS011;64096;52.548;13.406;2023-04-25T06:15:52;6.70;;;3.65;;
71821;SDS011;64096;52.548;13.406;2023-04-25T06:18:18;7.32;;;3.60;;
71821;SDS011;64096;52.548;13.406;2023-04-25T06:20:44;6.47;;;2.85;;
71821;SDS011;64096;52.548;13.406;2023-04-25T06:23:11;7.60;;;3.58;;
71821;SDS011;64096;52.548;13.406;2023-04-25T06:25:37;5.40;;;2.80;;
71821;SDS011;64096;52.548;13.406;2023-04-25T06:28:03;6.65;;;2.70;;
71821;SDS011;64096;52.548;13.406;2023-04-25T06:30:29;7.93;;;3.45;;
71821;SDS011;64096;52.548;13.406;2023-04-25T06:32:56;6.35;;;3.03;;
71821;SDS011;64096;52.548;13.406;2023-04-25T06:35:23;5.97;;;2.97;;
71821;SDS011;64096;52.548;13.406;2023-04-25T06:37:49;5.97;;;3.05;;
71821;SDS011;64096;52.548;13.406;2023-04-25T06:40:15;5.63;;;3.05;;
71821;SDS011;64096;52.548;13.406;2023-04-25T06:42:42;7.85;;;4.28;;
71821;SDS011;64096;52.548;13.406;2023-04-25T06:45:08;6.45;;;4.22;;
71821;SDS011;64096;52.548;13.406;2023-04-25T06:47:34;5.35;;;3.00;;
71821;SDS011;64096;52.548;13.406;2023-04-25T06:50:01;5.65;;;3.30;;
71821;SDS011;64096;52.548;13.406;2023-04-25T06:52:27;5.63;;;2.88;;
71821;SDS011;64096;52.548;13.406;2023-04-25T06:54:53;6.15;;;3.97;;
71821;SDS011;64096;52.548;13.406;2023-04-25T06:57:19;6.47;;;3.60;;
71821;SDS011;64096;52.548;13.406;2023-04-25T06:59:45;6.20;;;3.10;;
71821;SDS011;64096;52.548;13.406;2023-04-25T07:02:11;5.28;;;2.78;;
71821;SDS011;64096;52.548;13.406;2023-04-25T07:04:37;7.18;;;2.70;;
71821;SDS011;64096;52.548;13.406;2023-04-25T07:07:03;4.25;;;2.70;;
71821;SDS011;64096;52.548;13.406;2023-04-25T07:09:29;6.95;;;3.10;;
71821;SDS011;64096;52.548;13.406;2023-04-25T07:11:58;7.53;;;3.25;;
71821;SDS011;64096;52.548;13.406;2023-04-25T07:14:26;5.85;;;2.80;;
71821;SDS011;64096;52.548;13.406;2023-04-25T07:16:52;4.93;;;2.85;;
71821;SDS011;64096;52.548;13.406;2023-04-25T07:19:18;5.95;;;3.22;;
71821;SDS011;64096;52.548;13.406;2023-04-25T07:21:44;5.32;;;3.40;;
71821;SDS011;64096;52.548;13.406;2023-04-25T07:24:10;4.32;;;2.80;;
71821;SDS011;64096;52.548;13.406;2023-04-25T07:26:36;5.60;;;2.75;;
71821;SDS011;64096;52.548;13.406;2023-04-25T07:29:02;6.47;;;3.75;;
71821;SDS011;64096;52.548;13.406;2023-04-25T07:31:28;6.63;;;3.10;;
71821;SDS011;64096;52.548;13.406;2023-04-25T07:33:54;10.32;;;5.75;;
71821;SDS011;64096;52.548;13.406;2023-04-25T07:36:20;7.10;;;3.03;;
71821;SDS011;64096;52.548;13.406;2023-04-25T07:38:46;6.22;;;2.50;;
71821;SDS011;64096;52.548;13.406;2023-04-25T07:41:12;7.15;;;3.30;;
71821;SDS011;64096;52.548;13.406;2023-04-25T07:43:38;7.32;;;3.35;;
71821;SDS011;64096;52.548;13.406;2023-04-25T07:46:06;8.02;;;4.15;;
71821;SDS011;64096;52.548;13.406;2023-04-25T07:48:32;10.60;;;7.18;;
71821;SDS011;64096;52.548;13.406;2023-04-25T07:50:59;10.05;;;5.85;;
71821;SDS011;64096;52.548;13.406;2023-04-25T07:53:25;7.60;;;4.65;;
71821;SDS011;64096;52.548;13.406;2023-04-25T07:55:51;4.78;;;2.47;;
71821;SDS011;64096;52.548;13.406;2023-04-25T07:58:18;8.30;;;2.90;;
71821;SDS011;64096;52.548;13.406;2023-04-25T08:00:47;7.53;;;2.72;;
71821;SDS011;64096;52.548;13.406;2023-04-25T08:03:17;5.15;;;2.40;;
71821;SDS011;64096;52.548;13.406;2023-04-25T08:05:46;8.77;;;3.20;;
71821;SDS011;64096;52.548;13.406;2023-04-25T08:08:12;7.13;;;2.60;;
71821;SDS011;64096;52.548;13.406;2023-04-25T08:10:38;6.57;;;2.25;;
71821;SDS011;64096;52.548;13.406;2023-04-25T08:13:05;7.70;;;2.80;;
71821;SDS011;64096;52.548;13.406;2023-04-25T08:15:31;9.85;;;2.80;;
71821;SDS011;64096;52.548;13.406;2023-04-25T08:17:57;8.65;;;2.75;;
71821;SDS011;64096;52.548;13.406;2023-04-25T08:20:24;7.30;;;2.42;;
71821;SDS011;64096;52.548;13.406;2023-04-25T08:22:50;7.32;;;2.60;;
71821;SDS011;64096;52.548;13.406;2023-04-25T08:25:17;6.63;;;2.40;;
71821;SDS011;64096;52.548;13.406;2023-04-25T08:27:43;7.05;;;2.60;;
71821;SDS011;64096;52.548;13.406;2023-04-25T08:30:09;7.97;;;2.47;;
71821;SDS011;64096;52.548;13.406;2023-04-25T08:32:35;6.15;;;2.95;;
71821;SDS011;64096;52.548;13.406;2023-04-25T08:35:05;15.13;;;7.25;;
71821;SDS011;64096;52.548;13.406;2023-04-25T08:37:32;7.93;;;4.28;;
71821;SDS011;64096;52.548;13.406;2023-04-25T08:39:58;9.73;;;3.42;;
71821;SDS011;64096;52.548;13.406;2023-04-25T08:42:24;9.45;;;3.30;;
71821;SDS011;64096;52.548;13.406;2023-04-25T08:44:52;11.93;;;6.20;;
71821;SDS011;64096;52.548;13.406;2023-04-25T08:47:20;9.63;;;5.78;;
71821;SDS011;64096;52.548;13.406;2023-04-25T08:49:47;9.07;;;3.47;;
71821;SDS011;64096;52.548;13.406;2023-04-25T08:52:14;6.00;;;2.10;;
71821;SDS011;64096;52.548;13.406;2023-04-25T08:54:44;6.82;;;2.63;;
71821;SDS011;64096;52.548;13.406;2023-04-25T08:57:12;8.40;;;2.20;;
71821;SDS011;64096;52.548;13.406;2023-04-25T08:59:39;5.57;;;2.03;;
71821;SDS011;64096;52.548;13.406;2023-04-25T09:02:05;7.72;;;2.03;;
71821;SDS011;64096;52.548;13.406;2023-04-25T09:04:31;7.65;;;2.53;;
71821;SDS011;64096;52.548;13.406;2023-04-25T09:06:57;4.68;;;1.77;;
71821;SDS011;64096;52.548;13.406;2023-04-25T09:09:24;8.10;;;2.05;;
71821;SDS011;64096;52.548;13.406;2023-04-25T09:11:50;7.75;;;2.22;;
71821;SDS011;64096;52.548;13.406;2023-04-25T09:14:20;6.68;;;2.03;;
71821;SDS011;64096;52.548;13.406;2023-04-25T09:19:34;5.22;;;2.42;;
71821;SDS011;64096;52.548;13.406;2023-04-25T09:22:04;9.73;;;3.13;;
71821;SDS011;64096;52.548;13.406;2023-04-25T09:26:57;5.63;;;2.03;;
71821;SDS011;64096;52.548;13.406;2023-04-25T09:29:32;6.32;;;2.00;;
71821;SDS011;64096;52.548;13.406;2023-04-25T09:34:44;7.40;;;1.90;;
71821;SDS011;64096;52.548;13.406;2023-04-25T09:37:13;5.65;;;2.35;;
71821;SDS011;64096;52.548;13.406;2023-04-25T09:39:44;6.97;;;2.70;;
71821;SDS011;64096;52.548;13.406;2023-04-25T09:42:10;9.27;;;3.40;;
71821;SDS011;64096;52.548;13.406;2023-04-25T09:44:36;6.13;;;2.33;;
71821;SDS011;64096;52.548;13.406;2023-04-25T09:47:03;6.10;;;1.63;;
71821;SDS011;64096;52.548;13.406;2023-04-25T09:49:29;5.82;;;1.75;;
71821;SDS011;64096;52.548;13.406;2023-04-25T09:51:58;5.40;;;1.67;;
71821;SDS011;64096;52.548;13.406;2023-04-25T09:54:24;5.55;;;1.50;;
71821;SDS011;64096;52.548;13.406;2023-04-25T09:56:52;5.25;;;1.65;;
71821;SDS011;64096;52.548;13.406;2023-04-25T09:59:22;7.57;;;2.05;;
71821;SDS011;64096;52.548;13.406;2023-04-25T10:01:48;5.20;;;1.50;;
71821;SDS011;64096;52.548;13.406;2023-04-25T10:04:22;7.38;;;2.08;;
71821;SDS011;64096;52.548;13.406;2023-04-25T10:06:51;5.93;;;2.10;;
71821;SDS011;64096;52.548;13.406;2023-04-25T10:09:21;6.10;;;2.10;;
71821;SDS011;64096;52.548;13.406;2023-04-25T10:11:49;6.43;;;1.75;;
71821;SDS011;64096;52.548;13.406;2023-04-25T10:14:16;5.75;;;1.63;;
71821;SDS011;64096;52.548;13.406;2023-04-25T10:16:42;5.20;;;1.75;;
71821;SDS011;64096;52.548;13.406;2023-04-25T10:19:09;6.95;;;1.80;;
71821;SDS011;64096;52.548;13.406;2023-04-25T10:21:36;5.05;;;1.63;;
71821;SDS011;64096;52.548;13.406;2023-04-25T10:24:08;3.90;;;1.65;;
71821;SDS011;64096;52.548;13.406;2023-04-25T10:26:34;6.40;;;2.30;;
71821;SDS011;64096;52.548;13.406;2023-04-25T10:29:02;5.75;;;1.77;;
71821;SDS011;64096;52.548;13.406;2023-04-25T10:31:31;5.45;;;2.22;;
71821;SDS011;64096;52.548;13.406;2023-04-25T10:33:59;8.65;;;3.00;;
71821;SDS011;64096;52.548;13.406;2023-04-25T10:36:25;5.32;;;2.28;;
71821;SDS011;64096;52.548;13.406;2023-04-25T10:38:55;5.05;;;1.60;;
71821;SDS011;64096;52.548;13.406;2023-04-25T10:41:23;5.93;;;1.98;;
71821;SDS011;64096;52.548;13.406;2023-04-25T10:43:49;5.75;;;2.17;;
71821;SDS011;64096;52.548;13.406;2023-04-25T10:46:25;6.13;;;1.83;;
71821;SDS011;64096;52.548;13.406;2023-04-25T10:48:58;4.80;;;1.85;;
71821;SDS011;64096;52.548;13.406;2023-04-25T10:51:31;5.95;;;1.80;;
71821;SDS011;64096;52.548;13.406;2023-04-25T10:54:01;7.18;;;3.83;;
71821;SDS011;64096;52.548;13.406;2023-04-25T11:04:04;6.93;;;2.05;;
71821;SDS011;64096;52.548;13.406;2023-04-25T11:09:12;6.82;;;1.70;;
71821;SDS011;64096;52.548;13.406;2023-04-25T11:11:39;3.97;;;1.58;;
71821;SDS011;64096;52.548;13.406;2023-04-25T11:14:05;7.25;;;2.80;;
71821;SDS011;64096;52.548;13.406;2023-04-25T11:16:31;6.93;;;2.55;;
71821;SDS011;64096;52.548;13.406;2023-04-25T11:18:57;6.50;;;2.30;;
71821;SDS011;64096;52.548;13.406;2023-04-25T11:21:27;5.43;;;2.22;;
71821;SDS011;64096;52.548;13.406;2023-04-25T11:23:53;8.70;;;3.05;;
71821;SDS011;64096;52.548;13.406;2023-04-25T11:26:19;4.47;;;1.65;;
71821;SDS011;64096;52.548;13.406;2023-04-25T11:28:46;6.18;;;1.45;;
71821;SDS011;64096;52.548;13.406;2023-04-25T11:31:12;4.18;;;1.30;;
71821;SDS011;64096;52.548;13.406;2023-04-25T11:33:38;5.45;;;1.38;;
71821;SDS011;64096;52.548;13.406;2023-04-25T11:36:05;4.65;;;1.27;;
71821;SDS011;64096;52.548;13.406;2023-04-25T11:38:32;5.32;;;1.40;;
71821;SDS011;64096;52.548;13.406;2023-04-25T11:40:58;5.75;;;1.40;;
71821;SDS011;64096;52.548;13.406;2023-04-25T11:43:25;4.97;;;1.58;;
71821;SDS011;64096;52.548;13.406;2023-04-25T11:45:51;4.43;;;1.75;;
71821;SDS011;64096;52.548;13.406;2023-04-25T11:48:18;6.60;;;1.48;;
71821;SDS011;64096;52.548;13.406;2023-04-25T11:50:45;4.72;;;1.38;;
71821;SDS011;64096;52.548;13.406;2023-04-25T11:53:11;3.38;;;1.20;;
71821;SDS011;64096;52.548;13.406;2023-04-25T11:55:38;4.93;;;1.35;;
71821;SDS011;64096;52.548;13.406;2023-04-25T11:58:05;4.35;;;1.35;;
71821;SDS011;64096;52.548;13.406;2023-04-25T12:00:31;6.47;;;1.70;;
71821;SDS011;64096;52.548;13.406;2023-04-25T12:02:57;4.97;;;1.70;;
71821;SDS011;64096;52.548;13.406;2023-04-25T12:05:27;4.78;;;1.30;;
71821;SDS011;64096;52.548;13.406;2023-04-25T12:07:54;6.00;;;1.88;;
71821;SDS011;64096;52.548;13.406;2023-04-25T12:10:20;5.80;;;1.38;;
71821;SDS011;64096;52.548;13.406;2023-04-25T12:12:47;7.70;;;1.83;;
71821;SDS011;64096;52.548;13.406;2023-04-25T12:15:14;6.47;;;1.77;;
71821;SDS011;64096;52.548;13.406;2023-04-25T12:17:44;6.20;;;1.85;;
71821;SDS011;64096;52.548;13.406;2023-04-25T12:20:14;5.15;;;1.85;;
71821;SDS011;64096;52.548;13.406;2023-04-25T12:22:41;5.20;;;1.45;;
71821;SDS011;64096;52.548;13.406;2023-04-25T12:25:13;7.05;;;1.85;;
71821;SDS011;64096;52.548;13.406;2023-04-25T12:28:08;7.78;;;2.00;;
71821;SDS011;64096;52.548;13.406;2023-04-25T12:30:51;6.80;;;2.10;;
71821;SDS011;64096;52.548;13.406;2023-04-25T12:33:17;4.93;;;1.70;;
71821;SDS011;64096;52.548;13.406;2023-04-25T12:35:44;4.40;;;1.85;;
71821;SDS011;64096;52.548;13.406;2023-04-25T12:38:10;4.82;;;1.42;;
71821;SDS011;64096;52.548;13.406;2023-04-25T12:40:36;3.95;;;1.35;;
71821;SDS011;64096;52.548;13.406;2023-04-25T12:43:02;3.45;;;1.30;;
71821;SDS011;64096;52.548;13.406;2023-04-25T12:45:28;4.53;;;1.75;;
71821;SDS011;64096;52.548;13.406;2023-04-25T12:47:54;4.70;;;1.58;;
71821;SDS011;64096;52.548;13.406;2023-04-25T12:50:20;5.78;;;1.55;;
71821;SDS011;64096;52.548;13.406;2023-04-25T12:52:46;4.80;;;1.67;;
71821;SDS011;64096;52.548;13.406;2023-04-25T12:55:12;4.97;;;1.85;;
71821;SDS011;64096;52.548;13.406;2023-04-25T12:57:39;4.40;;;1.40;;
71821;SDS011;64096;52.548;13.406;2023-04-25T13:00:05;5.95;;;1.40;;
71821;SDS011;64096;52.548;13.406;2023-04-25T13:02:33;4.70;;;1.63;;
71821;SDS011;64096;52.548;13.406;2023-04-25T13:04:59;4.80;;;1.85;;
71821;SDS011;64096;52.548;13.406;2023-04-25T13:07:25;2.55;;;1.00;;
71821;SDS011;64096;52.548;13.406;2023-04-25T13:09:51;5.13;;;0.95;;
71821;SDS011;64096;52.548;13.406;2023-04-25T13:12:18;3.70;;;1.35;;
71821;SDS011;64096;52.548;13.406;2023-04-25T13:14:44;5.20;;;1.52;;
71821;SDS011;64096;52.548;13.406;2023-04-25T13:17:10;3.15;;;1.10;;
71821;SDS011;64096;52.548;13.406;2023-04-25T13:19:36;3.20;;;0.98;;
71821;SDS011;64096;52.548;13.406;2023-04-25T13:22:04;3.45;;;1.10;;
71821;SDS011;64096;52.548;13.406;2023-04-25T13:24:30;3.03;;;1.10;;
71821;SDS011;64096;52.548;13.406;2023-04-25T13:26:56;3.53;;;1.20;;
71821;SDS011;64096;52.548;13.406;2023-04-25T13:29:22;2.03;;;0.77;;
71821;SDS011;64096;52.548;13.406;2023-04-25T13:31:48;3.80;;;1.30;;
71821;SDS011;64096;52.548;13.406;2023-04-25T13:34:14;4.68;;;1.38;;
71821;SDS011;64096;52.548;13.406;2023-04-25T13:36:40;5.65;;;1.30;;
71821;SDS011;64096;52.548;13.406;2023-04-25T13:39:06;4.05;;;1.30;;
71821;SDS011;64096;52.548;13.406;2023-04-25T13:41:33;4.93;;;1.30;;
71821;SDS011;64096;52.548;13.406;2023-04-25T13:43:59;5.00;;;1.42;;
71821;SDS011;64096;52.548;13.406;2023-04-25T13:46:26;3.33;;;1.30;;
71821;SDS011;64096;52.548;13.406;2023-04-25T13:48:52;4.45;;;1.50;;
71821;SDS011;64096;52.548;13.406;2023-04-25T13:51:18;4.75;;;1.55;;
71821;SDS011;64096;52.548;13.406;2023-04-25T13:53:44;4.72;;;1.27;;
71821;SDS011;64096;52.548;13.406;2023-04-25T13:56:11;5.35;;;1.50;;
71821;SDS011;64096;52.548;13.406;2023-04-25T13:58:37;5.60;;;1.45;;
71821;SDS011;64096;52.548;13.406;2023-04-25T14:09:18;5.30;;;1.67;;
71821;SDS011;64096;52.548;13.406;2023-04-25T14:11:45;4.78;;;2.00;;
71821;SDS011;64096;52.548;13.406;2023-04-25T14:14:11;4.65;;;1.38;;
71821;SDS011;64096;52.548;13.406;2023-04-25T14:16:40;3.25;;;1.17;;
71821;SDS011;64096;52.548;13.406;2023-04-25T14:19:06;3.92;;;1.63;;
71821;SDS011;64096;52.548;13.406;2023-04-25T14:21:32;4.20;;;1.50;;
71821;SDS011;64096;52.548;13.406;2023-04-25T14:23:58;3.15;;;0.98;;
71821;SDS011;64096;52.548;13.406;2023-04-25T14:26:24;3.08;;;1.00;;
71821;SDS011;64096;52.548;13.406;2023-04-25T14:28:51;2.58;;;0.85;;
71821;SDS011;64096;52.548;13.406;2023-04-25T14:31:17;2.65;;;1.00;;
71821;SDS011;64096;52.548;13.406;2023-04-25T14:33:43;2.70;;;0.95;;
71821;SDS011;64096;52.548;13.406;2023-04-25T14:36:10;4.63;;;0.90;;
71821;SDS011;64096;52.548;13.406;2023-04-25T14:38:36;3.78;;;1.25;;
71821;SDS011;64096;52.548;13.406;2023-04-25T14:41:03;2.80;;;1.20;;
71821;SDS011;64096;52.548;13.406;2023-04-25T14:43:29;3.95;;;1.05;;
71821;SDS011;64096;52.548;13.406;2023-04-25T14:45:55;4.18;;;1.08;;
71821;SDS011;64096;52.548;13.406;2023-04-25T14:48:21;5.38;;;1.67;;
71821;SDS011;64096;52.548;13.406;2023-04-25T14:50:48;4.57;;;1.52;;
71821;SDS011;64096;52.548;13.406;2023-04-25T14:53:14;3.33;;;0.95;;
71821;SDS011;64096;52.548;13.406;2023-04-25T14:55:40;3.65;;;1.02;;
71821;SDS011;64096;52.548;13.406;2023-04-25T14:58:07;2.30;;;1.00;;
71821;SDS011;64096;52.548;13.406;2023-04-25T15:00:33;5.03;;;1.00;;
71821;SDS011;64096;52.548;13.406;2023-04-25T15:02:59;4.20;;;1.35;;
71821;SDS011;64096;52.548;13.406;2023-04-25T15:05:25;4.45;;;1.55;;
71821;SDS011;64096;52.548;13.406;2023-04-25T15:07:51;5.63;;;1.60;;
71821;SDS011;64096;52.548;13.406;2023-04-25T15:10:17;4.93;;;2.10;;
71821;SDS011;64096;52.548;13.406;2023-04-25T15:12:44;2.75;;;1.10;;
71821;SDS011;64096;52.548;13.406;2023-04-25T15:15:10;3.38;;;1.00;;
71821;SDS011;64096;52.548;13.406;2023-04-25T15:17:37;4.05;;;1.10;;
71821;SDS011;64096;52.548;13.406;2023-04-25T15:20:05;4.90;;;1.42;;
71821;SDS011;64096;52.548;13.406;2023-04-25T15:22:31;5.60;;;1.42;;
71821;SDS011;64096;52.548;13.406;2023-04-25T15:24:57;3.45;;;1.23;;
71821;SDS011;64096;52.548;13.406;2023-04-25T15:27:23;2.97;;;1.08;;
71821;SDS011;64096;52.548;13.406;2023-04-25T15:29:52;2.80;;;1.00;;
71821;SDS011;64096;52.548;13.406;2023-04-25T15:32:19;1.98;;;0.90;;
71821;SDS011;64096;52.548;13.406;2023-04-25T15:34:45;3.40;;;1.05;;
71821;SDS011;64096;52.548;13.406;2023-04-25T15:37:12;3.28;;;1.20;;
71821;SDS011;64096;52.548;13.406;2023-04-25T15:39:38;3.75;;;1.35;;
71821;SDS011;64096;52.548;13.406;2023-04-25T15:42:04;3.05;;;1.10;;
71821;SDS011;64096;52.548;13.406;2023-04-25T15:44:30;3.22;;;0.77;;
71821;SDS011;64096;52.548;13.406;2023-04-25T15:46:56;2.58;;;0.90;;
71821;SDS011;64096;52.548;13.406;2023-04-25T15:49:22;3.05;;;0.88;;
71821;SDS011;64096;52.548;13.406;2023-04-25T15:51:48;3.40;;;1.00;;
71821;SDS011;64096;52.548;13.406;2023-04-25T15:54:14;3.05;;;1.02;;
71821;SDS011;64096;52.548;13.406;2023-04-25T15:56:41;3.72;;;1.25;;
71821;SDS011;64096;52.548;13.406;2023-04-25T15:59:07;3.45;;;1.10;;
71821;SDS011;64096;52.548;13.406;2023-04-25T16:01:33;3.55;;;0.98;;
71821;SDS011;64096;52.548;13.406;2023-04-25T16:03:59;4.30;;;0.95;;
71821;SDS011;64096;52.548;13.406;2023-04-25T16:06:25;3.58;;;0.88;;
71821;SDS011;64096;52.548;13.406;2023-04-25T16:08:52;2.88;;;0.75;;
71821;SDS011;64096;52.548;13.406;2023-04-25T16:11:19;3.28;;;0.90;;
71821;SDS011;64096;52.548;13.406;2023-04-25T16:13:45;3.47;;;1.10;;
71821;SDS011;64096;52.548;13.406;2023-04-25T16:16:11;3.47;;;0.90;;
71821;SDS011;64096;52.548;13.406;2023-04-25T16:18:37;4.18;;;1.00;;
71821;SDS011;64096;52.548;13.406;2023-04-25T16:21:03;2.65;;;0.63;;
71821;SDS011;64096;52.548;13.406;2023-04-25T16:23:29;2.55;;;0.68;;
71821;SDS011;64096;52.548;13.406;2023-04-25T16:25:55;3.35;;;1.05;;
71821;SDS011;64096;52.548;13.406;2023-04-25T16:28:21;3.33;;;0.95;;
71821;SDS011;64096;52.548;13.406;2023-04-25T16:30:47;2.00;;;0.80;;
71821;SDS011;64096;52.548;13.406;2023-04-25T16:33:14;3.83;;;1.02;;
71821;SDS011;64096;52.548;13.406;2023-04-25T16:35:40;3.20;;;0.93;;
71821;SDS011;64096;52.548;13.406;2023-04-25T16:38:06;3.20;;;1.00;;
71821;SDS011;64096;52.548;13.406;2023-04-25T16:40:32;2.28;;;0.68;;
71821;SDS011;64096;52.548;13.406;2023-04-25T16:42:58;3.17;;;0.90;;
71821;SDS011;64096;52.548;13.406;2023-04-25T16:45:25;1.83;;;0.90;;
71821;SDS011;64096;52.548;13.406;2023-04-25T16:47:51;3.40;;;1.13;;
71821;SDS011;64096;52.548;13.406;2023-04-25T16:50:17;3.15;;;0.80;;
71821;SDS011;64096;52.548;13.406;2023-04-25T16:52:44;2.45;;;0.85;;
71821;SDS011;64096;52.548;13.406;2023-04-25T16:55:10;2.50;;;0.73;;
71821;SDS011;64096;52.548;13.406;2023-04-25T16:57:36;2.83;;;0.90;;
71821;SDS011;64096;52.548;13.406;2023-04-25T17:00:03;2.78;;;0.90;;
71821;SDS011;64096;52.548;13.406;2023-04-25T17:02:29;2.78;;;1.25;;
71821;SDS011;64096;52.548;13.406;2023-04-25T17:04:55;3.40;;;0.75;;
71821;SDS011;64096;52.548;13.406;2023-04-25T17:07:21;1.45;;;0.65;;
71821;SDS011;64096;52.548;13.406;2023-04-25T17:09:49;2.85;;;0.80;;
71821;SDS011;64096;52.548;13.406;2023-04-25T17:12:16;2.45;;;0.73;;
71821;SDS011;64096;52.548;13.406;2023-04-25T17:14:43;3.72;;;1.45;;
71821;SDS011;64096;52.548;13.406;2023-04-25T17:17:10;3.63;;;1.10;;
71821;SDS011;64096;52.548;13.406;2023-04-25T17:19:37;2.38;;;1.00;;
71821;SDS011;64096;52.548;13.406;2023-04-25T17:22:03;2.70;;;0.88;;
71821;SDS011;64096;52.548;13.406;2023-04-25T17:24:29;2.80;;;1.20;;
71821;SDS011;64096;52.548;13.406;2023-04-25T17:26:55;2.40;;;0.68;;
71821;SDS011;64096;52.548;13.406;2023-04-25T17:29:21;2.70;;;0.80;;
71821;SDS011;64096;52.548;13.406;2023-04-25T17:31:51;2.45;;;0.70;;
71821;SDS011;64096;52.548;13.406;2023-04-25T17:34:17;1.90;;;0.80;;
71821;SDS011;64096;52.548;13.406;2023-04-25T17:36:44;1.70;;;0.60;;
71821;SDS011;64096;52.548;13.406;2023-04-25T17:39:11;2.95;;;0.80;;
71821;SDS011;64096;52.548;13.406;2023-04-25T17:41:41;3.65;;;0.80;;
71821;SDS011;64096;52.548;13.406;2023-04-25T17:44:07;3.08;;;0.93;;
71821;SDS011;64096;52.548;13.406;2023-04-25T17:46:33;3.42;;;1.25;;
71821;SDS011;64096;52.548;13.406;2023-04-25T17:48:59;4.22;;;1.17;;
71821;SDS011;64096;52.548;13.406;2023-04-25T17:51:25;4.00;;;1.17;;
71821;SDS011;64096;52.548;13.406;2023-04-25T17:53:51;2.30;;;0.90;;
71821;SDS011;64096;52.548;13.406;2023-04-25T17:56:17;2.95;;;0.70;;
71821;SDS011;64096;52.548;13.406;2023-04-25T17:58:43;2.90;;;1.10;;
71821;SDS011;64096;52.548;13.406;2023-04-25T18:01:09;2.20;;;0.90;;
71821;SDS011;64096;52.548;13.406;2023-04-25T18:03:35;3.60;;;1.00;;
71821;SDS011;64096;52.548;13.406;2023-04-25T18:06:05;3.13;;;0.90;;
71821;SDS011;64096;52.548;13.406;2023-04-25T18:08:31;3.58;;;1.10;;
71821;SDS011;64096;52.548;13.406;2023-04-25T18:10:57;3.40;;;0.98;;
71821;SDS011;64096;52.548;13.406;2023-04-25T18:13:24;4.95;;;1.30;;
71821;SDS011;64096;52.548;13.406;2023-04-25T18:15:50;3.45;;;1.35;;
71821;SDS011;64096;52.548;13.406;2023-04-25T18:18:16;3.17;;;0.90;;
71821;SDS011;64096;52.548;13.406;2023-04-25T18:20:49;2.83;;;1.07;;
71821;SDS011;64096;52.548;13.406;2023-04-25T18:23:15;2.75;;;1.08;;
71821;SDS011;64096;52.548;13.406;2023-04-25T18:25:41;3.55;;;1.30;;
71821;SDS011;64096;52.548;13.406;2023-04-25T18:28:07;4.63;;;1.67;;
71821;SDS011;64096;52.548;13.406;2023-04-25T18:30:33;3.13;;;1.13;;
71821;SDS011;64096;52.548;13.406;2023-04-25T18:33:00;3.45;;;1.02;;
71821;SDS011;64096;52.548;13.406;2023-04-25T18:35:26;3.78;;;1.25;;
71821;SDS011;64096;52.548;13.406;2023-04-25T18:37:52;2.47;;;0.90;;
71821;SDS011;64096;52.548;13.406;2023-04-25T18:40:18;3.55;;;0.90;;
71821;SDS011;64096;52.548;13.406;2023-04-25T18:42:44;4.35;;;1.30;;
71821;SDS011;64096;52.548;13.406;2023-04-25T18:45:11;2.70;;;0.98;;
71821;SDS011;64096;52.548;13.406;2023-04-25T18:47:37;2.65;;;0.90;;
71821;SDS011;64096;52.548;13.406;2023-04-25T18:50:03;3.83;;;1.33;;
71821;SDS011;64096;52.548;13.406;2023-04-25T18:52:30;4.78;;;1.17;;
71821;SDS011;64096;52.548;13.406;2023-04-25T18:54:57;3.70;;;1.10;;
71821;SDS011;64096;52.548;13.406;2023-04-25T18:57:23;4.05;;;1.10;;
71821;SDS011;64096;52.548;13.406;2023-04-25T18:59:50;3.30;;;0.95;;
71821;SDS011;64096;52.548;13.406;2023-04-25T19:02:16;3.65;;;0.95;;
71821;SDS011;64096;52.548;13.406;2023-04-25T19:04:42;3.85;;;1.17;;
71821;SDS011;64096;52.548;13.406;2023-04-25T19:07:08;3.42;;;1.20;;
71821;SDS011;64096;52.548;13.406;2023-04-25T19:09:34;2.72;;;0.90;;
71821;SDS011;64096;52.548;13.406;2023-04-25T19:12:01;1.85;;;0.90;;
71821;SDS011;64096;52.548;13.406;2023-04-25T19:14:29;4.00;;;1.00;;
71821;SDS011;64096;52.548;13.406;2023-04-25T19:16:56;3.95;;;1.00;;
71821;SDS011;64096;52.548;13.406;2023-04-25T19:19:23;2.58;;;0.82;;
71821;SDS011;64096;52.548;13.406;2023-04-25T19:21:49;2.95;;;1.00;;
71821;SDS011;64096;52.548;13.406;2023-04-25T19:24:16;2.72;;;0.90;;
71821;SDS011;64096;52.548;13.406;2023-04-25T19:26:42;3.03;;;1.05;;
71821;SDS011;64096;52.548;13.406;2023-04-25T19:29:12;3.30;;;1.05;;
71821;SDS011;64096;52.548;13.406;2023-04-25T19:31:42;3.90;;;1.00;;
71821;SDS011;64096;52.548;13.406;2023-04-25T19:34:08;4.63;;;1.15;;
71821;SDS011;64096;52.548;13.406;2023-04-25T19:36:36;2.00;;;0.68;;
71821;SDS011;64096;52.548;13.406;2023-04-25T19:39:02;4.55;;;0.98;;
71821;SDS011;64096;52.548;13.406;2023-04-25T19:41:29;3.30;;;0.98;;
71821;SDS011;64096;52.548;13.406;2023-04-25T19:43:55;4.63;;;0.95;;
71821;SDS011;64096;52.548;13.406;2023-04-25T19:46:22;3.53;;;0.95;;
71821;SDS011;64096;52.548;13.406;2023-04-25T19:48:48;2.50;;;0.80;;
71821;SDS011;64096;52.548;13.406;2023-04-25T19:51:15;5.00;;;1.20;;
71821;SDS011;64096;52.548;13.406;2023-04-25T19:53:41;3.88;;;1.20;;
71821;SDS011;64096;52.548;13.406;2023-04-25T19:56:07;3.90;;;1.00;;
71821;SDS011;64096;52.548;13.406;2023-04-25T19:58:33;4.70;;;1.65;;
71821;SDS011;64096;52.548;13.406;2023-04-25T20:01:00;4.18;;;1.50;;
71821;SDS011;64096;52.548;13.406;2023-04-25T20:03:26;3.25;;;1.13;;
71821;SDS011;64096;52.548;13.406;2023-04-25T20:05:52;3.33;;;1.10;;
71821;SDS011;64096;52.548;13.406;2023-04-25T20:08:18;3.08;;;1.00;;
71821;SDS011;64096;52.548;13.406;2023-04-25T20:10:44;2.83;;;1.10;;
71821;SDS011;64096;52.548;13.406;2023-04-25T20:13:11;2.17;;;0.98;;
71821;SDS011;64096;52.548;13.406;2023-04-25T20:15:37;4.32;;;1.13;;
71821;SDS011;64096;52.548;13.406;2023-04-25T20:18:03;2.97;;;1.05;;
71821;SDS011;64096;52.548;13.406;2023-04-25T20:20:29;2.72;;;1.08;;
71821;SDS011;64096;52.548;13.406;2023-04-25T20:22:55;3.28;;;1.08;;
71821;SDS011;64096;52.548;13.406;2023-04-25T20:25:22;2.72;;;1.08;;
71821;SDS011;64096;52.548;13.406;2023-04-25T20:27:48;4.20;;;1.05;;
71821;SDS011;64096;52.548;13.406;2023-04-25T20:30:14;3.97;;;1.40;;
71821;SDS011;64096;52.548;13.406;2023-04-25T20:32:40;6.10;;;1.55;;
71821;SDS011;64096;52.548;13.406;2023-04-25T20:35:06;3.30;;;1.20;;
71821;SDS011;64096;52.548;13.406;2023-04-25T20:37:33;4.28;;;1.13;;
71821;SDS011;64096;52.548;13.406;2023-04-25T20:40:00;2.72;;;0.93;;
71821;SDS011;64096;52.548;13.406;2023-04-25T20:42:26;4.95;;;1.30;;
71821;SDS011;64096;52.548;13.406;2023-04-25T20:44:52;4.40;;;1.15;;
71821;SDS011;64096;52.548;13.406;2023-04-25T20:47:18;3.25;;;1.17;;
71821;SDS011;64096;52.548;13.406;2023-04-25T20:49:45;4.13;;;1.38;;
71821;SDS011;64096;52.548;13.406;2023-04-25T20:52:11;4.35;;;1.38;;
71821;SDS011;64096;52.548;13.406;2023-04-25T20:54:37;2.40;;;1.20;;
71821;SDS011;64096;52.548;13.406;2023-04-25T20:57:03;3.25;;;1.10;;
71821;SDS011;64096;52.548;13.406;2023-04-25T20:59:30;4.70;;;1.30;;